Watersmeet, Michigan
Current Conditions -  °F | °C
As of 7:15 PM on Friday 28 Nov 2014 (Local Time) from KLNL Reporting Station
Overcast Overcast  
Wind Chill:   Ceiling: 4000
Heat Index: 15°   Visibility: 10mi
Dew Point: 11°   Wind: 5mph
Humidity: 87%   Direction: 160°SSE
Pressure: 29.87"   Gusts: NA
Location:  46.27°N, 89.18°W
Report Text: KLNL 290115Z AUTO 16004KT 10SM OVC040 M10/M11 A2987 RMK AO2 T10971115
Loading
Personal Weather Stations






























Interactive Weather Map New forecast layout! Learn more

10-Day Weather Forecast

Advertisements
Track Severe Weather on mobile